sensor_id;sensor_type;location;lat;lon;timestamp;P1;durP1;ratioP1;P2;durP2;ratioP2
24637;SDS011;12773;50.162;8.548;2022-08-30T00:00:12;3.65;;;1.67;;
24637;SDS011;12773;50.162;8.548;2022-08-30T00:03:14;3.95;;;1.90;;
24637;SDS011;12773;50.162;8.548;2022-08-30T00:06:03;8.40;;;2.08;;
24637;SDS011;12773;50.162;8.548;2022-08-30T00:08:51;6.50;;;2.30;;
24637;SDS011;12773;50.162;8.548;2022-08-30T00:11:38;6.53;;;2.30;;
24637;SDS011;12773;50.162;8.548;2022-08-30T00:14:26;8.23;;;2.22;;
24637;SDS011;12773;50.162;8.548;2022-08-30T00:17:14;6.42;;;2.12;;
24637;SDS011;12773;50.162;8.548;2022-08-30T00:20:03;11.95;;;2.30;;
24637;SDS011;12773;50.162;8.548;2022-08-30T00:22:52;5.45;;;2.30;;
24637;SDS011;12773;50.162;8.548;2022-08-30T00:25:40;7.37;;;2.20;;
24637;SDS011;12773;50.162;8.548;2022-08-30T00:28:27;5.08;;;2.40;;
24637;SDS011;12773;50.162;8.548;2022-08-30T00:31:16;6.03;;;2.12;;
24637;SDS011;12773;50.162;8.548;2022-08-30T00:34:04;5.62;;;2.15;;
24637;SDS011;12773;50.162;8.548;2022-08-30T00:36:51;4.65;;;2.02;;
24637;SDS011;12773;50.162;8.548;2022-08-30T00:39:39;7.67;;;1.95;;
24637;SDS011;12773;50.162;8.548;2022-08-30T00:42:26;5.05;;;2.10;;
24637;SDS011;12773;50.162;8.548;2022-08-30T00:45:19;4.35;;;1.75;;
24637;SDS011;12773;50.162;8.548;2022-08-30T00:48:07;5.12;;;1.95;;
24637;SDS011;12773;50.162;8.548;2022-08-30T00:50:58;6.65;;;2.27;;
24637;SDS011;12773;50.162;8.548;2022-08-30T00:53:49;6.55;;;1.80;;
24637;SDS011;12773;50.162;8.548;2022-08-30T00:56:39;6.72;;;2.22;;
24637;SDS011;12773;50.162;8.548;2022-08-30T00:59:28;4.65;;;1.80;;
24637;SDS011;12773;50.162;8.548;2022-08-30T01:02:17;4.85;;;1.80;;
24637;SDS011;12773;50.162;8.548;2022-08-30T01:05:08;8.73;;;2.42;;
24637;SDS011;12773;50.162;8.548;2022-08-30T01:07:59;6.12;;;1.98;;
24637;SDS011;12773;50.162;8.548;2022-08-30T01:10:46;7.87;;;2.15;;
24637;SDS011;12773;50.162;8.548;2022-08-30T01:13:35;5.47;;;1.72;;
24637;SDS011;12773;50.162;8.548;2022-08-30T01:16:23;4.58;;;1.95;;
24637;SDS011;12773;50.162;8.548;2022-08-30T01:22:27;8.13;;;1.90;;
24637;SDS011;12773;50.162;8.548;2022-08-30T01:25:33;9.08;;;1.92;;
24637;SDS011;12773;50.162;8.548;2022-08-30T01:28:23;6.45;;;2.02;;
24637;SDS011;12773;50.162;8.548;2022-08-30T01:31:12;4.15;;;1.90;;
24637;SDS011;12773;50.162;8.548;2022-08-30T01:34:00;4.70;;;2.30;;
24637;SDS011;12773;50.162;8.548;2022-08-30T01:36:49;5.22;;;1.92;;
24637;SDS011;12773;50.162;8.548;2022-08-30T01:39:37;3.67;;;2.00;;
24637;SDS011;12773;50.162;8.548;2022-08-30T01:42:25;7.03;;;1.92;;
24637;SDS011;12773;50.162;8.548;2022-08-30T01:45:13;3.80;;;2.00;;
24637;SDS011;12773;50.162;8.548;2022-08-30T01:48:00;8.38;;;2.40;;
24637;SDS011;12773;50.162;8.548;2022-08-30T01:50:48;4.28;;;2.12;;
24637;SDS011;12773;50.162;8.548;2022-08-30T01:53:37;5.10;;;1.90;;
24637;SDS011;12773;50.162;8.548;2022-08-30T01:56:26;5.85;;;2.10;;
24637;SDS011;12773;50.162;8.548;2022-08-30T01:59:14;5.45;;;1.92;;
24637;SDS011;12773;50.162;8.548;2022-08-30T02:02:03;5.97;;;1.77;;
24637;SDS011;12773;50.162;8.548;2022-08-30T02:04:51;7.72;;;2.27;;
24637;SDS011;12773;50.162;8.548;2022-08-30T02:07:40;5.83;;;2.10;;
24637;SDS011;12773;50.162;8.548;2022-08-30T02:10:27;6.50;;;2.10;;
24637;SDS011;12773;50.162;8.548;2022-08-30T02:13:15;8.65;;;2.37;;
24637;SDS011;12773;50.162;8.548;2022-08-30T02:16:03;4.85;;;1.82;;
24637;SDS011;12773;50.162;8.548;2022-08-30T02:18:52;4.45;;;1.95;;
24637;SDS011;12773;50.162;8.548;2022-08-30T02:21:41;5.40;;;1.98;;
24637;SDS011;12773;50.162;8.548;2022-08-30T02:24:29;4.92;;;2.02;;
24637;SDS011;12773;50.162;8.548;2022-08-30T02:27:16;7.45;;;1.95;;
24637;SDS011;12773;50.162;8.548;2022-08-30T02:30:09;4.55;;;1.90;;
24637;SDS011;12773;50.162;8.548;2022-08-30T02:32:53;3.90;;;2.12;;
24637;SDS011;12773;50.162;8.548;2022-08-30T02:35:40;6.33;;;1.90;;
24637;SDS011;12773;50.162;8.548;2022-08-30T02:38:28;3.77;;;1.70;;
24637;SDS011;12773;50.162;8.548;2022-08-30T02:41:17;6.87;;;2.22;;
24637;SDS011;12773;50.162;8.548;2022-08-30T02:44:05;9.28;;;2.35;;
24637;SDS011;12773;50.162;8.548;2022-08-30T02:46:53;4.35;;;2.00;;
24637;SDS011;12773;50.162;8.548;2022-08-30T02:49:41;4.33;;;2.10;;
24637;SDS011;12773;50.162;8.548;2022-08-30T02:52:27;4.83;;;1.95;;
24637;SDS011;12773;50.162;8.548;2022-08-30T02:55:15;5.83;;;1.90;;
24637;SDS011;12773;50.162;8.548;2022-08-30T02:58:03;3.47;;;1.92;;
24637;SDS011;12773;50.162;8.548;2022-08-30T03:00:50;4.92;;;1.90;;
24637;SDS011;12773;50.162;8.548;2022-08-30T03:03:38;4.20;;;2.05;;
24637;SDS011;12773;50.162;8.548;2022-08-30T03:06:26;3.83;;;1.95;;
24637;SDS011;12773;50.162;8.548;2022-08-30T03:09:14;8.28;;;2.45;;
24637;SDS011;12773;50.162;8.548;2022-08-30T03:12:01;6.45;;;2.05;;
24637;SDS011;12773;50.162;8.548;2022-08-30T03:14:51;6.15;;;2.12;;
24637;SDS011;12773;50.162;8.548;2022-08-30T03:17:39;8.43;;;2.15;;
24637;SDS011;12773;50.162;8.548;2022-08-30T03:20:27;4.40;;;1.77;;
24637;SDS011;12773;50.162;8.548;2022-08-30T03:23:14;6.42;;;2.10;;
24637;SDS011;12773;50.162;8.548;2022-08-30T03:26:04;6.17;;;2.22;;
24637;SDS011;12773;50.162;8.548;2022-08-30T03:28:52;5.87;;;2.10;;
24637;SDS011;12773;50.162;8.548;2022-08-30T03:31:39;4.08;;;2.10;;
24637;SDS011;12773;50.162;8.548;2022-08-30T03:34:29;3.62;;;1.90;;
24637;SDS011;12773;50.162;8.548;2022-08-30T03:37:17;7.60;;;2.17;;
24637;SDS011;12773;50.162;8.548;2022-08-30T03:40:06;7.40;;;1.95;;
24637;SDS011;12773;50.162;8.548;2022-08-30T03:42:54;3.55;;;1.75;;
24637;SDS011;12773;50.162;8.548;2022-08-30T03:45:42;6.37;;;2.40;;
24637;SDS011;12773;50.162;8.548;2022-08-30T03:48:29;5.37;;;2.20;;
24637;SDS011;12773;50.162;8.548;2022-08-30T03:51:17;6.67;;;2.27;;
24637;SDS011;12773;50.162;8.548;2022-08-30T03:54:04;6.10;;;2.27;;
24637;SDS011;12773;50.162;8.548;2022-08-30T03:56:52;3.85;;;2.30;;
24637;SDS011;12773;50.162;8.548;2022-08-30T03:59:39;4.62;;;2.22;;
24637;SDS011;12773;50.162;8.548;2022-08-30T04:02:26;10.68;;;2.42;;
24637;SDS011;12773;50.162;8.548;2022-08-30T04:05:13;5.78;;;1.98;;
24637;SDS011;12773;50.162;8.548;2022-08-30T04:08:02;7.78;;;2.65;;
24637;SDS011;12773;50.162;8.548;2022-08-30T04:10:49;4.22;;;2.10;;
24637;SDS011;12773;50.162;8.548;2022-08-30T04:13:37;6.25;;;2.75;;
24637;SDS011;12773;50.162;8.548;2022-08-30T04:16:24;5.70;;;2.30;;
24637;SDS011;12773;50.162;8.548;2022-08-30T04:19:12;7.65;;;2.20;;
24637;SDS011;12773;50.162;8.548;2022-08-30T04:21:59;7.33;;;2.37;;
24637;SDS011;12773;50.162;8.548;2022-08-30T04:24:46;5.67;;;2.22;;
24637;SDS011;12773;50.162;8.548;2022-08-30T04:27:33;5.17;;;2.20;;
24637;SDS011;12773;50.162;8.548;2022-08-30T04:30:21;6.53;;;2.50;;
24637;SDS011;12773;50.162;8.548;2022-08-30T04:33:09;6.08;;;2.60;;
24637;SDS011;12773;50.162;8.548;2022-08-30T04:36:00;5.28;;;2.33;;
24637;SDS011;12773;50.162;8.548;2022-08-30T04:38:48;6.53;;;2.47;;
24637;SDS011;12773;50.162;8.548;2022-08-30T04:41:36;6.47;;;2.30;;
24637;SDS011;12773;50.162;8.548;2022-08-30T04:44:24;5.40;;;2.50;;
24637;SDS011;12773;50.162;8.548;2022-08-30T04:47:12;4.87;;;2.50;;
24637;SDS011;12773;50.162;8.548;2022-08-30T04:49:59;6.80;;;2.90;;
24637;SDS011;12773;50.162;8.548;2022-08-30T04:52:46;6.55;;;2.47;;
24637;SDS011;12773;50.162;8.548;2022-08-30T04:55:33;10.28;;;2.62;;
24637;SDS011;12773;50.162;8.548;2022-08-30T04:58:21;10.48;;;3.10;;
24637;SDS011;12773;50.162;8.548;2022-08-30T05:01:16;6.72;;;2.47;;
24637;SDS011;12773;50.162;8.548;2022-08-30T05:04:06;9.83;;;2.60;;
24637;SDS011;12773;50.162;8.548;2022-08-30T05:06:53;8.55;;;2.50;;
24637;SDS011;12773;50.162;8.548;2022-08-30T05:09:41;8.45;;;2.62;;
24637;SDS011;12773;50.162;8.548;2022-08-30T05:12:28;5.67;;;2.80;;
24637;SDS011;12773;50.162;8.548;2022-08-30T05:15:16;6.03;;;2.60;;
24637;SDS011;12773;50.162;8.548;2022-08-30T05:18:04;10.00;;;2.60;;
24637;SDS011;12773;50.162;8.548;2022-08-30T05:21:03;7.03;;;2.45;;
24637;SDS011;12773;50.162;8.548;2022-08-30T05:23:56;11.10;;;2.90;;
24637;SDS011;12773;50.162;8.548;2022-08-30T05:26:47;9.05;;;3.05;;
24637;SDS011;12773;50.162;8.548;2022-08-30T05:29:34;4.12;;;2.60;;
24637;SDS011;12773;50.162;8.548;2022-08-30T05:32:21;5.60;;;2.47;;
24637;SDS011;12773;50.162;8.548;2022-08-30T05:35:09;7.12;;;2.67;;
24637;SDS011;12773;50.162;8.548;2022-08-30T05:37:58;9.88;;;3.02;;
24637;SDS011;12773;50.162;8.548;2022-08-30T05:40:50;6.70;;;2.70;;
24637;SDS011;12773;50.162;8.548;2022-08-30T05:43:38;11.08;;;2.65;;
24637;SDS011;12773;50.162;8.548;2022-08-30T05:46:27;8.55;;;2.70;;
24637;SDS011;12773;50.162;8.548;2022-08-30T05:49:16;8.80;;;2.72;;
24637;SDS011;12773;50.162;8.548;2022-08-30T05:52:04;8.18;;;2.70;;
24637;SDS011;12773;50.162;8.548;2022-08-30T05:54:54;9.70;;;3.08;;
24637;SDS011;12773;50.162;8.548;2022-08-30T05:57:43;9.88;;;3.30;;
24637;SDS011;12773;50.162;8.548;2022-08-30T06:00:30;7.70;;;3.05;;
24637;SDS011;12773;50.162;8.548;2022-08-30T06:03:17;14.60;;;2.95;;
24637;SDS011;12773;50.162;8.548;2022-08-30T06:06:05;10.05;;;2.75;;
24637;SDS011;12773;50.162;8.548;2022-08-30T06:08:52;8.70;;;3.10;;
24637;SDS011;12773;50.162;8.548;2022-08-30T06:11:41;11.50;;;2.90;;
24637;SDS011;12773;50.162;8.548;2022-08-30T06:14:29;9.25;;;2.80;;
24637;SDS011;12773;50.162;8.548;2022-08-30T06:17:16;8.85;;;2.70;;
24637;SDS011;12773;50.162;8.548;2022-08-30T06:20:04;12.03;;;2.98;;
24637;SDS011;12773;50.162;8.548;2022-08-30T06:22:52;8.63;;;2.67;;
24637;SDS011;12773;50.162;8.548;2022-08-30T06:25:39;6.47;;;2.42;;
24637;SDS011;12773;50.162;8.548;2022-08-30T06:28:26;8.83;;;2.62;;
24637;SDS011;12773;50.162;8.548;2022-08-30T06:31:15;8.43;;;2.42;;
24637;SDS011;12773;50.162;8.548;2022-08-30T06:34:04;12.82;;;3.00;;
24637;SDS011;12773;50.162;8.548;2022-08-30T06:36:51;12.13;;;2.72;;
24637;SDS011;12773;50.162;8.548;2022-08-30T06:39:38;7.03;;;2.83;;
24637;SDS011;12773;50.162;8.548;2022-08-30T06:42:26;9.70;;;2.90;;
24637;SDS011;12773;50.162;8.548;2022-08-30T06:45:17;7.80;;;2.90;;
24637;SDS011;12773;50.162;8.548;2022-08-30T06:48:05;11.35;;;2.50;;
24637;SDS011;12773;50.162;8.548;2022-08-30T06:50:52;9.75;;;2.72;;
24637;SDS011;12773;50.162;8.548;2022-08-30T06:53:40;9.08;;;2.65;;
24637;SDS011;12773;50.162;8.548;2022-08-30T06:56:27;16.93;;;2.95;;
24637;SDS011;12773;50.162;8.548;2022-08-30T06:59:16;12.40;;;2.90;;
24637;SDS011;12773;50.162;8.548;2022-08-30T07:02:03;9.50;;;2.75;;
24637;SDS011;12773;50.162;8.548;2022-08-30T07:04:51;15.25;;;2.52;;
24637;SDS011;12773;50.162;8.548;2022-08-30T07:07:38;8.15;;;2.05;;
24637;SDS011;12773;50.162;8.548;2022-08-30T07:10:26;11.80;;;2.65;;
24637;SDS011;12773;50.162;8.548;2022-08-30T07:13:14;5.75;;;2.50;;
24637;SDS011;12773;50.162;8.548;2022-08-30T07:16:11;14.75;;;2.55;;
24637;SDS011;12773;50.162;8.548;2022-08-30T07:18:58;8.18;;;2.80;;
24637;SDS011;12773;50.162;8.548;2022-08-30T07:21:47;9.48;;;2.37;;
24637;SDS011;12773;50.162;8.548;2022-08-30T07:24:35;6.70;;;2.60;;
24637;SDS011;12773;50.162;8.548;2022-08-30T07:27:22;6.72;;;2.50;;
24637;SDS011;12773;50.162;8.548;2022-08-30T07:30:09;8.35;;;2.50;;
24637;SDS011;12773;50.162;8.548;2022-08-30T07:32:57;7.42;;;2.45;;
24637;SDS011;12773;50.162;8.548;2022-08-30T07:35:45;6.92;;;2.37;;
24637;SDS011;12773;50.162;8.548;2022-08-30T07:38:33;6.42;;;2.50;;
24637;SDS011;12773;50.162;8.548;2022-08-30T07:41:22;7.53;;;2.45;;
24637;SDS011;12773;50.162;8.548;2022-08-30T07:44:10;9.50;;;2.67;;
24637;SDS011;12773;50.162;8.548;2022-08-30T07:46:58;8.45;;;3.00;;
24637;SDS011;12773;50.162;8.548;2022-08-30T07:49:45;9.10;;;2.42;;
24637;SDS011;12773;50.162;8.548;2022-08-30T07:52:33;7.72;;;2.60;;
24637;SDS011;12773;50.162;8.548;2022-08-30T07:55:20;8.33;;;2.47;;
24637;SDS011;12773;50.162;8.548;2022-08-30T07:58:07;5.28;;;2.25;;
24637;SDS011;12773;50.162;8.548;2022-08-30T08:00:55;5.22;;;2.40;;
24637;SDS011;12773;50.162;8.548;2022-08-30T08:03:43;13.22;;;2.58;;
24637;SDS011;12773;50.162;8.548;2022-08-30T08:06:36;9.05;;;2.50;;
24637;SDS011;12773;50.162;8.548;2022-08-30T08:09:23;6.60;;;2.35;;
24637;SDS011;12773;50.162;8.548;2022-08-30T08:12:10;9.40;;;2.75;;
24637;SDS011;12773;50.162;8.548;2022-08-30T08:14:58;6.67;;;2.87;;
24637;SDS011;12773;50.162;8.548;2022-08-30T08:17:47;6.62;;;2.33;;
24637;SDS011;12773;50.162;8.548;2022-08-30T08:20:34;10.25;;;2.35;;
24637;SDS011;12773;50.162;8.548;2022-08-30T08:23:22;6.75;;;2.60;;
24637;SDS011;12773;50.162;8.548;2022-08-30T08:26:09;8.43;;;2.67;;
24637;SDS011;12773;50.162;8.548;2022-08-30T08:28:57;5.40;;;2.20;;
24637;SDS011;12773;50.162;8.548;2022-08-30T08:31:44;10.48;;;2.37;;
24637;SDS011;12773;50.162;8.548;2022-08-30T08:34:31;5.55;;;2.10;;
24637;SDS011;12773;50.162;8.548;2022-08-30T08:37:20;5.78;;;2.37;;
24637;SDS011;12773;50.162;8.548;2022-08-30T08:40:09;7.15;;;2.45;;
24637;SDS011;12773;50.162;8.548;2022-08-30T08:43:09;8.13;;;2.45;;
24637;SDS011;12773;50.162;8.548;2022-08-30T08:45:55;7.70;;;2.50;;
24637;SDS011;12773;50.162;8.548;2022-08-30T08:49:02;8.28;;;2.60;;
24637;SDS011;12773;50.162;8.548;2022-08-30T08:51:52;6.37;;;2.65;;
24637;SDS011;12773;50.162;8.548;2022-08-30T08:54:59;9.68;;;2.62;;
24637;SDS011;12773;50.162;8.548;2022-08-30T08:57:49;7.05;;;2.58;;
24637;SDS011;12773;50.162;8.548;2022-08-30T09:00:36;7.65;;;2.60;;
24637;SDS011;12773;50.162;8.548;2022-08-30T09:03:25;7.95;;;2.40;;
24637;SDS011;12773;50.162;8.548;2022-08-30T09:06:19;5.60;;;2.33;;
24637;SDS011;12773;50.162;8.548;2022-08-30T09:09:17;9.33;;;2.90;;
24637;SDS011;12773;50.162;8.548;2022-08-30T09:12:12;11.37;;;2.60;;
24637;SDS011;12773;50.162;8.548;2022-08-30T09:15:07;15.40;;;3.10;;
24637;SDS011;12773;50.162;8.548;2022-08-30T09:17:55;5.92;;;2.22;;
24637;SDS011;12773;50.162;8.548;2022-08-30T09:20:47;8.00;;;2.55;;
24637;SDS011;12773;50.162;8.548;2022-08-30T09:23:36;9.75;;;2.80;;
24637;SDS011;12773;50.162;8.548;2022-08-30T09:26:30;6.65;;;2.62;;
24637;SDS011;12773;50.162;8.548;2022-08-30T09:29:17;8.08;;;2.90;;
24637;SDS011;12773;50.162;8.548;2022-08-30T09:32:05;9.35;;;2.90;;
24637;SDS011;12773;50.162;8.548;2022-08-30T09:34:53;6.35;;;2.75;;
24637;SDS011;12773;50.162;8.548;2022-08-30T09:37:51;10.18;;;2.95;;
24637;SDS011;12773;50.162;8.548;2022-08-30T09:40:43;6.00;;;2.50;;
24637;SDS011;12773;50.162;8.548;2022-08-30T09:43:32;8.65;;;2.85;;
24637;SDS011;12773;50.162;8.548;2022-08-30T09:46:20;10.90;;;2.42;;
24637;SDS011;12773;50.162;8.548;2022-08-30T09:49:22;8.88;;;2.52;;
24637;SDS011;12773;50.162;8.548;2022-08-30T09:52:44;6.62;;;2.67;;
24637;SDS011;12773;50.162;8.548;2022-08-30T09:55:46;7.12;;;2.40;;
24637;SDS011;12773;50.162;8.548;2022-08-30T09:58:39;5.35;;;2.45;;
24637;SDS011;12773;50.162;8.548;2022-08-30T10:01:29;9.75;;;2.42;;
24637;SDS011;12773;50.162;8.548;2022-08-30T10:04:43;10.08;;;3.08;;
24637;SDS011;12773;50.162;8.548;2022-08-30T10:07:41;7.85;;;2.50;;
24637;SDS011;12773;50.162;8.548;2022-08-30T10:10:49;4.92;;;2.37;;
24637;SDS011;12773;50.162;8.548;2022-08-30T10:19:55;9.95;;;2.52;;
24637;SDS011;12773;50.162;8.548;2022-08-30T10:22:44;7.37;;;2.77;;
24637;SDS011;12773;50.162;8.548;2022-08-30T10:28:44;6.70;;;2.30;;
24637;SDS011;12773;50.162;8.548;2022-08-30T10:31:42;6.67;;;2.45;;
24637;SDS011;12773;50.162;8.548;2022-08-30T10:34:40;5.97;;;2.40;;
24637;SDS011;12773;50.162;8.548;2022-08-30T10:37:36;6.42;;;2.20;;
24637;SDS011;12773;50.162;8.548;2022-08-30T10:40:34;6.75;;;2.37;;
24637;SDS011;12773;50.162;8.548;2022-08-30T10:43:45;6.28;;;2.10;;
24637;SDS011;12773;50.162;8.548;2022-08-30T10:46:52;7.42;;;2.40;;
24637;SDS011;12773;50.162;8.548;2022-08-30T10:49:41;6.42;;;2.20;;
24637;SDS011;12773;50.162;8.548;2022-08-30T10:55:44;9.63;;;2.92;;
24637;SDS011;12773;50.162;8.548;2022-08-30T10:58:37;6.53;;;2.67;;
24637;SDS011;12773;50.162;8.548;2022-08-30T11:01:29;5.70;;;2.30;;
24637;SDS011;12773;50.162;8.548;2022-08-30T11:13:43;6.05;;;2.60;;
24637;SDS011;12773;50.162;8.548;2022-08-30T11:16:38;6.85;;;2.70;;
24637;SDS011;12773;50.162;8.548;2022-08-30T11:19:36;6.70;;;2.08;;
24637;SDS011;12773;50.162;8.548;2022-08-30T11:22:29;8.48;;;2.20;;
24637;SDS011;12773;50.162;8.548;2022-08-30T11:31:33;7.67;;;2.62;;
24637;SDS011;12773;50.162;8.548;2022-08-30T11:37:41;7.25;;;2.60;;
24637;SDS011;12773;50.162;8.548;2022-08-30T11:40:44;5.45;;;2.42;;
24637;SDS011;12773;50.162;8.548;2022-08-30T11:55:40;11.35;;;3.02;;
24637;SDS011;12773;50.162;8.548;2022-08-30T12:07:06;7.25;;;2.77;;
24637;SDS011;12773;50.162;8.548;2022-08-30T12:09:59;7.15;;;3.00;;
24637;SDS011;12773;50.162;8.548;2022-08-30T12:12:48;4.78;;;2.80;;
24637;SDS011;12773;50.162;8.548;2022-08-30T12:18:46;5.55;;;2.67;;
24637;SDS011;12773;50.162;8.548;2022-08-30T12:21:36;5.25;;;2.50;;
24637;SDS011;12773;50.162;8.548;2022-08-30T12:24:31;5.33;;;2.67;;
24637;SDS011;12773;50.162;8.548;2022-08-30T12:27:32;4.85;;;2.70;;
24637;SDS011;12773;50.162;8.548;2022-08-30T12:30:23;8.03;;;3.10;;
24637;SDS011;12773;50.162;8.548;2022-08-30T12:33:13;6.28;;;2.80;;
24637;SDS011;12773;50.162;8.548;2022-08-30T12:36:03;4.05;;;2.30;;
24637;SDS011;12773;50.162;8.548;2022-08-30T12:39:02;6.42;;;2.70;;
24637;SDS011;12773;50.162;8.548;2022-08-30T12:41:42;8.63;;;2.90;;
24637;SDS011;12773;50.162;8.548;2022-08-30T12:44:30;5.83;;;2.83;;
24637;SDS011;12773;50.162;8.548;2022-08-30T12:47:23;9.00;;;2.98;;
24637;SDS011;12773;50.162;8.548;2022-08-30T12:50:08;6.72;;;2.55;;
24637;SDS011;12773;50.162;8.548;2022-08-30T12:53:06;3.15;;;2.62;;
24637;SDS011;12773;50.162;8.548;2022-08-30T12:56:01;4.05;;;2.60;;
24637;SDS011;12773;50.162;8.548;2022-08-30T12:58:51;5.55;;;2.70;;
24637;SDS011;12773;50.162;8.548;2022-08-30T13:01:40;10.85;;;3.17;;
24637;SDS011;12773;50.162;8.548;2022-08-30T13:04:30;5.08;;;2.35;;
24637;SDS011;12773;50.162;8.548;2022-08-30T13:07:51;4.67;;;2.33;;
24637;SDS011;12773;50.162;8.548;2022-08-30T13:10:16;4.60;;;2.55;;
24637;SDS011;12773;50.162;8.548;2022-08-30T13:13:04;6.75;;;2.70;;
24637;SDS011;12773;50.162;8.548;2022-08-30T13:15:52;6.08;;;2.85;;
24637;SDS011;12773;50.162;8.548;2022-08-30T13:18:40;7.75;;;2.67;;
24637;SDS011;12773;50.162;8.548;2022-08-30T13:21:28;6.28;;;2.58;;
24637;SDS011;12773;50.162;8.548;2022-08-30T13:24:16;5.08;;;3.15;;
24637;SDS011;12773;50.162;8.548;2022-08-30T13:27:05;5.25;;;2.40;;
24637;SDS011;12773;50.162;8.548;2022-08-30T13:29:56;6.67;;;2.55;;
24637;SDS011;12773;50.162;8.548;2022-08-30T13:32:45;4.40;;;2.40;;
24637;SDS011;12773;50.162;8.548;2022-08-30T13:35:32;7.80;;;2.90;;
24637;SDS011;12773;50.162;8.548;2022-08-30T13:38:20;5.08;;;2.80;;
24637;SDS011;12773;50.162;8.548;2022-08-30T13:41:08;6.30;;;2.40;;
24637;SDS011;12773;50.162;8.548;2022-08-30T13:43:56;5.40;;;3.10;;
24637;SDS011;12773;50.162;8.548;2022-08-30T13:46:46;3.42;;;2.67;;
24637;SDS011;12773;50.162;8.548;2022-08-30T13:49:37;5.00;;;2.98;;
24637;SDS011;12773;50.162;8.548;2022-08-30T13:52:26;5.58;;;2.92;;
24637;SDS011;12773;50.162;8.548;2022-08-30T13:55:14;4.53;;;2.55;;
24637;SDS011;12773;50.162;8.548;2022-08-30T13:58:02;3.92;;;2.77;;
24637;SDS011;12773;50.162;8.548;2022-08-30T14:00:49;3.67;;;2.70;;
24637;SDS011;12773;50.162;8.548;2022-08-30T14:03:38;4.60;;;2.75;;
24637;SDS011;12773;50.162;8.548;2022-08-30T14:06:27;6.08;;;2.72;;
24637;SDS011;12773;50.162;8.548;2022-08-30T14:09:16;4.40;;;2.40;;
24637;SDS011;12773;50.162;8.548;2022-08-30T14:15:12;4.78;;;2.52;;
24637;SDS011;12773;50.162;8.548;2022-08-30T14:18:00;5.00;;;2.70;;
24637;SDS011;12773;50.162;8.548;2022-08-30T14:20:48;6.58;;;2.87;;
24637;SDS011;12773;50.162;8.548;2022-08-30T14:23:35;5.10;;;2.80;;
24637;SDS011;12773;50.162;8.548;2022-08-30T14:26:28;4.10;;;2.92;;
24637;SDS011;12773;50.162;8.548;2022-08-30T14:29:19;5.72;;;2.67;;
24637;SDS011;12773;50.162;8.548;2022-08-30T14:32:09;4.40;;;2.80;;
24637;SDS011;12773;50.162;8.548;2022-08-30T14:34:56;7.85;;;3.00;;
24637;SDS011;12773;50.162;8.548;2022-08-30T14:37:44;4.78;;;2.80;;
24637;SDS011;12773;50.162;8.548;2022-08-30T14:40:33;4.42;;;2.60;;
24637;SDS011;12773;50.162;8.548;2022-08-30T14:43:20;7.55;;;2.60;;
24637;SDS011;12773;50.162;8.548;2022-08-30T14:46:08;5.75;;;2.80;;
24637;SDS011;12773;50.162;8.548;2022-08-30T14:48:55;5.12;;;2.95;;
24637;SDS011;12773;50.162;8.548;2022-08-30T14:51:43;7.95;;;2.98;;
24637;SDS011;12773;50.162;8.548;2022-08-30T14:54:32;6.60;;;3.47;;
24637;SDS011;12773;50.162;8.548;2022-08-30T14:57:19;4.75;;;3.12;;
24637;SDS011;12773;50.162;8.548;2022-08-30T15:00:08;4.12;;;2.75;;
24637;SDS011;12773;50.162;8.548;2022-08-30T15:02:56;6.03;;;2.58;;
24637;SDS011;12773;50.162;8.548;2022-08-30T15:05:52;3.70;;;2.62;;
24637;SDS011;12773;50.162;8.548;2022-08-30T15:08:37;8.93;;;3.00;;
24637;SDS011;12773;50.162;8.548;2022-08-30T15:11:25;7.67;;;2.50;;
24637;SDS011;12773;50.162;8.548;2022-08-30T15:14:14;6.55;;;2.83;;
24637;SDS011;12773;50.162;8.548;2022-08-30T15:17:01;7.00;;;2.45;;
24637;SDS011;12773;50.162;8.548;2022-08-30T15:19:49;4.45;;;2.65;;
24637;SDS011;12773;50.162;8.548;2022-08-30T15:22:36;5.58;;;2.50;;
24637;SDS011;12773;50.162;8.548;2022-08-30T15:25:25;6.50;;;2.70;;
24637;SDS011;12773;50.162;8.548;2022-08-30T15:28:12;6.33;;;2.92;;
24637;SDS011;12773;50.162;8.548;2022-08-30T15:31:01;7.08;;;2.80;;
24637;SDS011;12773;50.162;8.548;2022-08-30T15:33:50;3.87;;;2.60;;
24637;SDS011;12773;50.162;8.548;2022-08-30T15:36:37;5.90;;;2.55;;
24637;SDS011;12773;50.162;8.548;2022-08-30T15:39:26;5.85;;;2.90;;
24637;SDS011;12773;50.162;8.548;2022-08-30T15:42:14;4.03;;;2.80;;
24637;SDS011;12773;50.162;8.548;2022-08-30T15:45:04;4.33;;;2.70;;
24637;SDS011;12773;50.162;8.548;2022-08-30T15:47:52;5.55;;;3.00;;
24637;SDS011;12773;50.162;8.548;2022-08-30T15:50:40;3.98;;;2.60;;
24637;SDS011;12773;50.162;8.548;2022-08-30T15:53:28;5.35;;;2.65;;
24637;SDS011;12773;50.162;8.548;2022-08-30T15:56:16;6.75;;;2.60;;
24637;SDS011;12773;50.162;8.548;2022-08-30T15:59:03;4.75;;;2.55;;
24637;SDS011;12773;50.162;8.548;2022-08-30T16:01:51;5.00;;;2.55;;
24637;SDS011;12773;50.162;8.548;2022-08-30T16:04:39;4.55;;;2.83;;
24637;SDS011;12773;50.162;8.548;2022-08-30T16:07:27;9.58;;;2.75;;
24637;SDS011;12773;50.162;8.548;2022-08-30T16:10:14;8.10;;;2.75;;
24637;SDS011;12773;50.162;8.548;2022-08-30T16:13:02;4.12;;;2.47;;
24637;SDS011;12773;50.162;8.548;2022-08-30T16:15:51;9.15;;;2.70;;
24637;SDS011;12773;50.162;8.548;2022-08-30T16:18:39;5.92;;;2.60;;
24637;SDS011;12773;50.162;8.548;2022-08-30T16:21:27;11.08;;;3.00;;
24637;SDS011;12773;50.162;8.548;2022-08-30T16:24:16;4.55;;;2.95;;
24637;SDS011;12773;50.162;8.548;2022-08-30T16:27:06;7.70;;;2.65;;
24637;SDS011;12773;50.162;8.548;2022-08-30T16:29:53;10.88;;;2.87;;
24637;SDS011;12773;50.162;8.548;2022-08-30T16:32:40;5.87;;;2.80;;
24637;SDS011;12773;50.162;8.548;2022-08-30T16:35:29;5.05;;;2.77;;
24637;SDS011;12773;50.162;8.548;2022-08-30T16:38:16;5.45;;;2.47;;
24637;SDS011;12773;50.162;8.548;2022-08-30T16:41:08;4.85;;;2.85;;
24637;SDS011;12773;50.162;8.548;2022-08-30T16:43:58;6.20;;;2.65;;
24637;SDS011;12773;50.162;8.548;2022-08-30T16:46:46;15.90;;;2.75;;
24637;SDS011;12773;50.162;8.548;2022-08-30T16:49:37;5.33;;;2.62;;
24637;SDS011;12773;50.162;8.548;2022-08-30T16:52:25;10.15;;;3.33;;
24637;SDS011;12773;50.162;8.548;2022-08-30T16:55:12;4.25;;;2.70;;
24637;SDS011;12773;50.162;8.548;2022-08-30T16:57:59;8.28;;;3.02;;
24637;SDS011;12773;50.162;8.548;2022-08-30T17:00:49;5.60;;;2.85;;
24637;SDS011;12773;50.162;8.548;2022-08-30T17:03:37;5.83;;;2.87;;
24637;SDS011;12773;50.162;8.548;2022-08-30T17:06:25;10.00;;;2.70;;
24637;SDS011;12773;50.162;8.548;2022-08-30T17:09:12;8.80;;;2.70;;
24637;SDS011;12773;50.162;8.548;2022-08-30T17:12:00;5.65;;;2.50;;
24637;SDS011;12773;50.162;8.548;2022-08-30T17:14:48;8.08;;;2.72;;
24637;SDS011;12773;50.162;8.548;2022-08-30T17:17:35;4.85;;;2.85;;
24637;SDS011;12773;50.162;8.548;2022-08-30T17:20:25;6.85;;;3.25;;
24637;SDS011;12773;50.162;8.548;2022-08-30T17:23:15;8.33;;;2.90;;
24637;SDS011;12773;50.162;8.548;2022-08-30T17:26:03;7.42;;;2.80;;
24637;SDS011;12773;50.162;8.548;2022-08-30T17:28:51;5.78;;;2.35;;
24637;SDS011;12773;50.162;8.548;2022-08-30T17:31:40;6.90;;;3.37;;
24637;SDS011;12773;50.162;8.548;2022-08-30T17:34:29;6.47;;;2.77;;
24637;SDS011;12773;50.162;8.548;2022-08-30T17:37:16;9.38;;;3.33;;
24637;SDS011;12773;50.162;8.548;2022-08-30T17:40:06;5.00;;;2.77;;
24637;SDS011;12773;50.162;8.548;2022-08-30T17:42:55;5.22;;;3.00;;
24637;SDS011;12773;50.162;8.548;2022-08-30T17:45:43;5.55;;;2.85;;
24637;SDS011;12773;50.162;8.548;2022-08-30T17:48:30;6.50;;;2.72;;
24637;SDS011;12773;50.162;8.548;2022-08-30T17:51:17;9.15;;;3.25;;
24637;SDS011;12773;50.162;8.548;2022-08-30T17:54:05;6.78;;;2.92;;
24637;SDS011;12773;50.162;8.548;2022-08-30T17:56:53;7.55;;;2.98;;
24637;SDS011;12773;50.162;8.548;2022-08-30T17:59:42;6.30;;;2.50;;